MSC Sinfonia — H8XH — position and weather

sailwx.info

Track history (hours):
 
Tides and Currents Weather Stations Pressure Air Temp Water Temp Dewpoint Dewpoint Depression Visibility Wind Speed Wind Dir Waves Ship Positions

MSC Sinfonia

Last reported at 2014-Dec-16 14:06 UTC. Time now 2014-Dec-18 10:30 UTC.
Position N 37°36' E 023°41'.

Length 251 m; draft 6.8 m.

Type: Passenger vessel. MMSI: 356715971.

Date/timePositionNaut miles runAvg speedWind from/ knotsBaromVisibWave heightAir tempDewpointWater temp
2014-Dec-16 14:06N 37°36' E 023°41'713.2
2014-Dec-16 13:33N 37°43' E 023°40'1313.2
2014-Dec-16 12:33N 37°56' E 023°37'1 0.6
2014-Dec-16 11:29N 37°56' E 023°37'0 0.0
2014-Dec-16 10:32N 37°56' E 023°37'0 0.0
2014-Dec-16 09:32N 37°56' E 023°37'0 0.0
2014-Dec-16 08:32N 37°56' E 023°37'0 0.0
2014-Dec-16 07:32N 37°56' E 023°37'0 0.0
2014-Dec-16 06:32N 37°56' E 023°37'0 0.0
2014-Dec-16 05:09N 37°56' E 023°37'0 0.0
2014-Dec-16 04:20N 37°56' E 023°37'0 0.0
2014-Dec-16 03:32N 37°56' E 023°37'0 0.0
2014-Dec-16 02:33N 37°56' E 023°37'0 0.0
2014-Dec-16 01:22N 37°56' E 023°37'0 0.4
2014-Dec-16 00:31N 37°56' E 023°37'1111.7
2014-Dec-15 23:34N 37°46' E 023°42'1713.7
2014-Dec-15 22:17N 37°37' E 024°01'2715.1
2014-Dec-15 20:31N 37°52' E 024°29'2215.7
2014-Dec-15 19:07N 38°09' E 024°46'1015.8
2014-Dec-15 18:30N 38°19' E 024°51'  
2014-Dec-13 08:33N 37°35' E 024°10'1512.8
2014-Dec-13 07:23N 37°23' E 023°60'3813.2
2014-Dec-13 04:30N 36°50' E 023°34'  
2014-Dec-08 21:30N 43°09' E 009°58'1617.1
2014-Dec-08 20:33N 43°21' E 009°44'1716.9
2014-Dec-08 19:33N 43°36' E 009°31'1717.1
2014-Dec-08 18:33N 43°51' E 009°20'1717.0
2014-Dec-08 17:33N 44°06' E 009°09'1717.4
2014-Dec-08 16:33N 44°21' E 008°58'4 3.9
2014-Dec-08 15:32N 44°25' E 008°55'0 0.0
2014-Dec-08 14:32N 44°25' E 008°55'0 0.0
2014-Dec-08 13:32N 44°25' E 008°55'0 0.0
2014-Dec-08 12:32N 44°25' E 008°55'0 0.0
2014-Dec-08 11:32N 44°25' E 008°55'0 0.0
2014-Dec-08 10:32N 44°25' E 008°55'0 0.0
2014-Dec-08 09:26N 44°25' E 008°55'0 0.0
2014-Dec-08 08:32N 44°25' E 008°55'0 0.0
2014-Dec-08 07:32N 44°25' E 008°55'0 0.5
2014-Dec-08 06:34N 44°24' E 008°55'1010.2
2014-Dec-08 05:33N 44°15' E 009°03'1212.5
2014-Dec-08 04:33N 44°04' E 009°11'1212.0
2014-Dec-08 03:33N 43°54' E 009°18'1312.6
2014-Dec-08 02:33N 43°42' E 009°26'1212.4
2014-Dec-08 01:33N 43°32' E 009°35'1212.3
2014-Dec-08 00:33N 43°21' E 009°44'1212.2
2014-Dec-07 23:33N 43°12' E 009°55'39613.0
2014-Dec-06 17:07N 38°13' E 015°37'  
Track history (hours):
 
Tides and Currents Weather Stations Pressure Air Temp Water Temp Dewpoint Dewpoint Depression Visibility Wind Speed Wind Dir Waves Ship Positions

MSC Sinfonia

Last reported at 2014-Dec-16 14:06 UTC. Time now 2014-Dec-18 10:30 UTC.
Position N 37°36' E 023°41'.

Length 251 m; draft 6.8 m.

Type: Passenger vessel. MMSI: 356715971.

Date/timePositionNaut miles runAvg speedWind from/ knotsBaromVisibWave heightAir tempDewpointWater temp
2014-Dec-16 14:06N 37°36' E 023°41'713.2
2014-Dec-16 13:33N 37°43' E 023°40'1313.2
2014-Dec-16 12:33N 37°56' E 023°37'1 0.6
2014-Dec-16 11:29N 37°56' E 023°37'0 0.0
2014-Dec-16 10:32N 37°56' E 023°37'0 0.0
2014-Dec-16 09:32N 37°56' E 023°37'0 0.0
2014-Dec-16 08:32N 37°56' E 023°37'0 0.0
2014-Dec-16 07:32N 37°56' E 023°37'0 0.0
2014-Dec-16 06:32N 37°56' E 023°37'0 0.0
2014-Dec-16 05:09N 37°56' E 023°37'0 0.0
2014-Dec-16 04:20N 37°56' E 023°37'0 0.0
2014-Dec-16 03:32N 37°56' E 023°37'0 0.0
2014-Dec-16 02:33N 37°56' E 023°37'0 0.0
2014-Dec-16 01:22N 37°56' E 023°37'0 0.4
2014-Dec-16 00:31N 37°56' E 023°37'1111.7
2014-Dec-15 23:34N 37°46' E 023°42'1713.7
2014-Dec-15 22:17N 37°37' E 024°01'2715.1
2014-Dec-15 20:31N 37°52' E 024°29'2215.7
2014-Dec-15 19:07N 38°09' E 024°46'1015.8
2014-Dec-15 18:30N 38°19' E 024°51'  
2014-Dec-13 08:33N 37°35' E 024°10'1512.8
2014-Dec-13 07:23N 37°23' E 023°60'3813.2
2014-Dec-13 04:30N 36°50' E 023°34'  
2014-Dec-08 21:30N 43°09' E 009°58'1617.1
2014-Dec-08 20:33N 43°21' E 009°44'1716.9
2014-Dec-08 19:33N 43°36' E 009°31'1717.1
2014-Dec-08 18:33N 43°51' E 009°20'1717.0
2014-Dec-08 17:33N 44°06' E 009°09'1717.4
2014-Dec-08 16:33N 44°21' E 008°58'4 3.9
2014-Dec-08 15:32N 44°25' E 008°55'0 0.0
2014-Dec-08 14:32N 44°25' E 008°55'0 0.0
2014-Dec-08 13:32N 44°25' E 008°55'0 0.0
2014-Dec-08 12:32N 44°25' E 008°55'0 0.0
2014-Dec-08 11:32N 44°25' E 008°55'0 0.0
2014-Dec-08 10:32N 44°25' E 008°55'0 0.0
2014-Dec-08 09:26N 44°25' E 008°55'0 0.0
2014-Dec-08 08:32N 44°25' E 008°55'0 0.0
2014-Dec-08 07:32N 44°25' E 008°55'0 0.5
2014-Dec-08 06:34N 44°24' E 008°55'1010.2
2014-Dec-08 05:33N 44°15' E 009°03'1212.5
2014-Dec-08 04:33N 44°04' E 009°11'1212.0
2014-Dec-08 03:33N 43°54' E 009°18'1312.6
2014-Dec-08 02:33N 43°42' E 009°26'1212.4
2014-Dec-08 01:33N 43°32' E 009°35'1212.3
2014-Dec-08 00:33N 43°21' E 009°44'1212.2
2014-Dec-07 23:33N 43°12' E 009°55'39613.0
2014-Dec-06 17:07N 38°13' E 015°37'  

Dump ship's entire track history